aviador You're here:

LRCL Decoded Metar

CLUJ-NAPOCA in ROMANIA
Report Time2018-06-23 05:30:00
UTC Time2018-06-23 05:59:19
Flight Rules vfr VFR
Wind290° at 15 kt
W.Decomp.*RWY 26: 13.4 kt HW 6.8 kt RCW
W.Rank290° ranks 10
Current wind is above 290° avg. (7.8)
Visibility9999 m
Phenomena:N/A
Clouds:Few 015 Hf
Scattered 060 Hf
Expected CloudBase > 2,000 ft AGL from Temp-Dew spread
CeilingNone
Temp12°C (ISA -0)
Dew Point07°C (72% RH)
AAT5.9°C
QNH1016 hPa
Density Alt1,358 ft
Elevation1,355 ft
Report Wrong Elevation
Raw Report
METAR LRCL 230530Z 29015KT 9999 FEW015 SCT060 12/07 Q1016=

Extra information for LRCL:More info

Metar Taf Metar & Taf Last 4 Metars F.Rules Stats Wind Profile Meteogram Temp Stats Airport Information Weather charts Add Link Nearby VenuesMetar ALERT Operation Metar Decoded Social comments